sensor_id;sensor_type;location;lat;lon;timestamp;P1;durP1;ratioP1;P2;durP2;ratioP2
28545;SDS011;15749;49.606;8.738;2023-06-10T00:02:56;4.37;;;2.77;;
28545;SDS011;15749;49.606;8.738;2023-06-10T00:05:45;3.03;;;2.72;;
28545;SDS011;15749;49.606;8.738;2023-06-10T00:08:33;2.77;;;2.57;;
28545;SDS011;15749;49.606;8.738;2023-06-10T00:11:26;2.53;;;2.33;;
28545;SDS011;15749;49.606;8.738;2023-06-10T00:14:14;2.93;;;2.60;;
28545;SDS011;15749;49.606;8.738;2023-06-10T00:17:04;2.80;;;2.60;;
28545;SDS011;15749;49.606;8.738;2023-06-10T00:19:58;2.87;;;2.57;;
28545;SDS011;15749;49.606;8.738;2023-06-10T00:22:50;3.07;;;2.77;;
28545;SDS011;15749;49.606;8.738;2023-06-10T00:25:39;2.73;;;2.53;;
28545;SDS011;15749;49.606;8.738;2023-06-10T00:28:27;2.83;;;2.57;;
28545;SDS011;15749;49.606;8.738;2023-06-10T00:31:15;2.80;;;2.57;;
28545;SDS011;15749;49.606;8.738;2023-06-10T00:34:05;2.90;;;2.70;;
28545;SDS011;15749;49.606;8.738;2023-06-10T00:36:53;2.57;;;2.37;;
28545;SDS011;15749;49.606;8.738;2023-06-10T00:39:41;2.80;;;2.60;;
28545;SDS011;15749;49.606;8.738;2023-06-10T00:42:29;3.40;;;3.00;;
28545;SDS011;15749;49.606;8.738;2023-06-10T00:45:18;2.97;;;2.77;;
28545;SDS011;15749;49.606;8.738;2023-06-10T00:48:06;2.60;;;2.40;;
28545;SDS011;15749;49.606;8.738;2023-06-10T00:50:55;2.60;;;2.40;;
28545;SDS011;15749;49.606;8.738;2023-06-10T00:53:43;3.57;;;2.33;;
28545;SDS011;15749;49.606;8.738;2023-06-10T00:56:33;2.67;;;2.47;;
28545;SDS011;15749;49.606;8.738;2023-06-10T00:59:21;3.20;;;2.90;;
28545;SDS011;15749;49.606;8.738;2023-06-10T01:02:11;3.50;;;2.90;;
28545;SDS011;15749;49.606;8.738;2023-06-10T01:05:01;2.80;;;2.60;;
28545;SDS011;15749;49.606;8.738;2023-06-10T01:07:55;4.33;;;2.70;;
28545;SDS011;15749;49.606;8.738;2023-06-10T01:10:50;3.37;;;2.57;;
28545;SDS011;15749;49.606;8.738;2023-06-10T01:13:43;4.67;;;2.80;;
28545;SDS011;15749;49.606;8.738;2023-06-10T01:16:33;2.80;;;2.60;;
28545;SDS011;15749;49.606;8.738;2023-06-10T01:19:22;2.80;;;2.60;;
28545;SDS011;15749;49.606;8.738;2023-06-10T01:22:12;2.40;;;2.20;;
28545;SDS011;15749;49.606;8.738;2023-06-10T01:25:02;2.50;;;2.30;;
28545;SDS011;15749;49.606;8.738;2023-06-10T01:27:52;2.70;;;2.50;;
28545;SDS011;15749;49.606;8.738;2023-06-10T01:30:43;2.53;;;2.33;;
28545;SDS011;15749;49.606;8.738;2023-06-10T01:33:36;3.07;;;2.87;;
28545;SDS011;15749;49.606;8.738;2023-06-10T01:36:28;2.90;;;2.70;;
28545;SDS011;15749;49.606;8.738;2023-06-10T01:39:20;3.03;;;2.73;;
28545;SDS011;15749;49.606;8.738;2023-06-10T01:42:11;3.57;;;3.27;;
28545;SDS011;15749;49.606;8.738;2023-06-10T01:44:59;3.20;;;2.80;;
28545;SDS011;15749;49.606;8.738;2023-06-10T01:47:47;3.00;;;2.80;;
28545;SDS011;15749;49.606;8.738;2023-06-10T01:50:36;3.67;;;3.33;;
28545;SDS011;15749;49.606;8.738;2023-06-10T01:53:24;3.80;;;2.90;;
28545;SDS011;15749;49.606;8.738;2023-06-10T01:56:13;4.20;;;2.73;;
28545;SDS011;15749;49.606;8.738;2023-06-10T01:59:04;3.60;;;3.17;;
28545;SDS011;15749;49.606;8.738;2023-06-10T02:01:52;4.47;;;3.17;;
28545;SDS011;15749;49.606;8.738;2023-06-10T02:04:40;2.93;;;2.73;;
28545;SDS011;15749;49.606;8.738;2023-06-10T02:07:28;3.77;;;3.20;;
28545;SDS011;15749;49.606;8.738;2023-06-10T02:10:16;3.17;;;2.90;;
28545;SDS011;15749;49.606;8.738;2023-06-10T02:13:05;4.03;;;3.03;;
28545;SDS011;15749;49.606;8.738;2023-06-10T02:15:53;3.23;;;2.93;;
28545;SDS011;15749;49.606;8.738;2023-06-10T02:18:41;2.77;;;2.57;;
28545;SDS011;15749;49.606;8.738;2023-06-10T02:21:32;2.80;;;2.60;;
28545;SDS011;15749;49.606;8.738;2023-06-10T02:24:20;3.43;;;2.63;;
28545;SDS011;15749;49.606;8.738;2023-06-10T02:27:08;4.53;;;2.63;;
28545;SDS011;15749;49.606;8.738;2023-06-10T02:29:59;3.83;;;3.20;;
28545;SDS011;15749;49.606;8.738;2023-06-10T02:32:50;3.53;;;3.23;;
28545;SDS011;15749;49.606;8.738;2023-06-10T02:35:38;3.40;;;3.10;;
28545;SDS011;15749;49.606;8.738;2023-06-10T02:38:27;3.47;;;3.13;;
28545;SDS011;15749;49.606;8.738;2023-06-10T02:41:16;3.57;;;3.27;;
28545;SDS011;15749;49.606;8.738;2023-06-10T02:44:05;5.97;;;3.47;;
28545;SDS011;15749;49.606;8.738;2023-06-10T02:46:54;4.37;;;3.20;;
28545;SDS011;15749;49.606;8.738;2023-06-10T02:49:43;3.47;;;3.17;;
28545;SDS011;15749;49.606;8.738;2023-06-10T02:52:32;2.97;;;2.77;;
28545;SDS011;15749;49.606;8.738;2023-06-10T02:55:20;3.37;;;2.60;;
28545;SDS011;15749;49.606;8.738;2023-06-10T02:58:17;2.70;;;2.50;;
28545;SDS011;15749;49.606;8.738;2023-06-10T03:01:07;2.67;;;2.47;;
28545;SDS011;15749;49.606;8.738;2023-06-10T03:04:06;2.80;;;2.60;;
28545;SDS011;15749;49.606;8.738;2023-06-10T03:06:56;2.63;;;2.43;;
28545;SDS011;15749;49.606;8.738;2023-06-10T03:09:52;3.30;;;3.00;;
28545;SDS011;15749;49.606;8.738;2023-06-10T03:12:40;3.10;;;2.90;;
28545;SDS011;15749;49.606;8.738;2023-06-10T03:15:29;2.80;;;2.60;;
28545;SDS011;15749;49.606;8.738;2023-06-10T03:18:25;3.00;;;2.40;;
28545;SDS011;15749;49.606;8.738;2023-06-10T03:21:16;3.03;;;2.83;;
28545;SDS011;15749;49.606;8.738;2023-06-10T03:24:06;3.07;;;2.87;;
28545;SDS011;15749;49.606;8.738;2023-06-10T03:26:54;3.60;;;3.30;;
28545;SDS011;15749;49.606;8.738;2023-06-10T03:29:51;4.20;;;3.40;;
28545;SDS011;15749;49.606;8.738;2023-06-10T03:32:55;4.17;;;3.40;;
28545;SDS011;15749;49.606;8.738;2023-06-10T03:35:46;3.37;;;3.07;;
28545;SDS011;15749;49.606;8.738;2023-06-10T03:38:42;6.67;;;3.20;;
28545;SDS011;15749;49.606;8.738;2023-06-10T03:41:40;3.57;;;3.30;;
28545;SDS011;15749;49.606;8.738;2023-06-10T03:44:39;3.03;;;2.60;;
28545;SDS011;15749;49.606;8.738;2023-06-10T03:47:53;3.07;;;2.83;;
28545;SDS011;15749;49.606;8.738;2023-06-10T03:51:16;2.90;;;2.70;;
28545;SDS011;15749;49.606;8.738;2023-06-10T04:02:21;3.10;;;2.80;;
28545;SDS011;15749;49.606;8.738;2023-06-10T04:05:31;2.53;;;2.33;;
28545;SDS011;15749;49.606;8.738;2023-06-10T04:08:24;3.37;;;3.17;;
28545;SDS011;15749;49.606;8.738;2023-06-10T04:12:24;3.13;;;2.87;;
28545;SDS011;15749;49.606;8.738;2023-06-10T04:34:07;2.83;;;2.63;;
28545;SDS011;15749;49.606;8.738;2023-06-10T04:43:53;2.90;;;2.43;;
28545;SDS011;15749;49.606;8.738;2023-06-10T04:57:12;3.37;;;3.07;;
28545;SDS011;15749;49.606;8.738;2023-06-10T05:00:22;2.83;;;2.63;;
28545;SDS011;15749;49.606;8.738;2023-06-10T05:04:38;2.53;;;2.33;;
28545;SDS011;15749;49.606;8.738;2023-06-10T05:08:08;3.30;;;3.00;;
28545;SDS011;15749;49.606;8.738;2023-06-10T05:20:09;2.70;;;2.50;;
28545;SDS011;15749;49.606;8.738;2023-06-10T05:23:43;3.20;;;3.00;;
28545;SDS011;15749;49.606;8.738;2023-06-10T05:27:59;3.40;;;3.10;;
28545;SDS011;15749;49.606;8.738;2023-06-10T05:31:01;3.63;;;2.87;;
28545;SDS011;15749;49.606;8.738;2023-06-10T05:34:03;3.00;;;2.80;;
28545;SDS011;15749;49.606;8.738;2023-06-10T05:37:04;2.80;;;2.60;;
28545;SDS011;15749;49.606;8.738;2023-06-10T05:39:53;3.03;;;2.77;;
28545;SDS011;15749;49.606;8.738;2023-06-10T05:42:58;3.77;;;2.70;;
28545;SDS011;15749;49.606;8.738;2023-06-10T05:50:19;2.70;;;2.50;;
28545;SDS011;15749;49.606;8.738;2023-06-10T05:53:12;3.00;;;2.70;;
28545;SDS011;15749;49.606;8.738;2023-06-10T05:56:24;4.17;;;3.50;;
28545;SDS011;15749;49.606;8.738;2023-06-10T05:59:44;2.93;;;2.33;;
28545;SDS011;15749;49.606;8.738;2023-06-10T06:07:52;2.17;;;2.07;;
28545;SDS011;15749;49.606;8.738;2023-06-10T06:10:57;2.07;;;1.97;;
28545;SDS011;15749;49.606;8.738;2023-06-10T06:19:03;2.60;;;2.40;;
28545;SDS011;15749;49.606;8.738;2023-06-10T06:26:40;3.27;;;2.97;;
28545;SDS011;15749;49.606;8.738;2023-06-10T06:29:42;3.00;;;2.80;;
28545;SDS011;15749;49.606;8.738;2023-06-10T06:33:33;3.00;;;2.80;;
28545;SDS011;15749;49.606;8.738;2023-06-10T06:36:55;4.27;;;2.73;;
28545;SDS011;15749;49.606;8.738;2023-06-10T06:40:06;4.20;;;2.73;;
28545;SDS011;15749;49.606;8.738;2023-06-10T06:44:47;4.37;;;2.70;;
28545;SDS011;15749;49.606;8.738;2023-06-10T06:47:55;2.70;;;2.50;;
28545;SDS011;15749;49.606;8.738;2023-06-10T06:51:54;3.00;;;2.70;;
28545;SDS011;15749;49.606;8.738;2023-06-10T07:03:42;2.77;;;2.57;;
28545;SDS011;15749;49.606;8.738;2023-06-10T07:06:30;2.70;;;2.50;;
28545;SDS011;15749;49.606;8.738;2023-06-10T07:09:23;2.80;;;2.60;;
28545;SDS011;15749;49.606;8.738;2023-06-10T07:12:14;3.05;;;2.75;;
28545;SDS011;15749;49.606;8.738;2023-06-10T07:15:15;2.70;;;2.50;;
28545;SDS011;15749;49.606;8.738;2023-06-10T07:18:03;3.30;;;3.00;;
28545;SDS011;15749;49.606;8.738;2023-06-10T07:20:53;2.95;;;2.75;;
28545;SDS011;15749;49.606;8.738;2023-06-10T07:23:41;2.87;;;2.67;;
28545;SDS011;15749;49.606;8.738;2023-06-10T07:27:07;2.70;;;2.50;;
28545;SDS011;15749;49.606;8.738;2023-06-10T07:29:56;3.13;;;2.72;;
28545;SDS011;15749;49.606;8.738;2023-06-10T07:32:44;3.50;;;2.40;;
28545;SDS011;15749;49.606;8.738;2023-06-10T07:35:40;2.80;;;2.60;;
28545;SDS011;15749;49.606;8.738;2023-06-10T07:38:35;3.40;;;3.10;;
28545;SDS011;15749;49.606;8.738;2023-06-10T07:41:28;2.90;;;2.58;;
28545;SDS011;15749;49.606;8.738;2023-06-10T07:44:23;2.50;;;2.30;;
28545;SDS011;15749;49.606;8.738;2023-06-10T07:47:12;3.47;;;3.17;;
28545;SDS011;15749;49.606;8.738;2023-06-10T07:50:20;3.05;;;2.85;;
28545;SDS011;15749;49.606;8.738;2023-06-10T07:53:18;2.90;;;2.70;;
28545;SDS011;15749;49.606;8.738;2023-06-10T07:56:12;3.13;;;2.83;;
28545;SDS011;15749;49.606;8.738;2023-06-10T07:59:05;2.72;;;2.53;;
28545;SDS011;15749;49.606;8.738;2023-06-10T08:01:56;2.30;;;2.17;;
28545;SDS011;15749;49.606;8.738;2023-06-10T08:04:45;2.58;;;2.38;;
28545;SDS011;15749;49.606;8.738;2023-06-10T08:07:33;2.67;;;2.47;;
28545;SDS011;15749;49.606;8.738;2023-06-10T08:10:24;2.50;;;2.30;;
28545;SDS011;15749;49.606;8.738;2023-06-10T08:13:18;3.10;;;2.42;;
28545;SDS011;15749;49.606;8.738;2023-06-10T08:16:06;3.00;;;2.40;;
28545;SDS011;15749;49.606;8.738;2023-06-10T08:18:56;2.60;;;2.40;;
28545;SDS011;15749;49.606;8.738;2023-06-10T08:21:47;2.70;;;2.50;;
28545;SDS011;15749;49.606;8.738;2023-06-10T08:24:40;2.72;;;2.53;;
28545;SDS011;15749;49.606;8.738;2023-06-10T08:27:28;3.10;;;2.80;;
28545;SDS011;15749;49.606;8.738;2023-06-10T08:34:05;2.97;;;2.70;;
28545;SDS011;15749;49.606;8.738;2023-06-10T08:37:08;3.22;;;2.92;;
28545;SDS011;15749;49.606;8.738;2023-06-10T08:40:35;2.47;;;2.38;;
28545;SDS011;15749;49.606;8.738;2023-06-10T08:43:58;2.80;;;2.60;;
28545;SDS011;15749;49.606;8.738;2023-06-10T08:46:59;2.75;;;2.55;;
28545;SDS011;15749;49.606;8.738;2023-06-10T08:50:03;2.78;;;2.58;;
28545;SDS011;15749;49.606;8.738;2023-06-10T08:53:33;3.83;;;2.55;;
28545;SDS011;15749;49.606;8.738;2023-06-10T08:56:39;3.20;;;2.90;;
28545;SDS011;15749;49.606;8.738;2023-06-10T08:59:49;2.92;;;2.58;;
28545;SDS011;15749;49.606;8.738;2023-06-10T09:02:49;2.90;;;2.70;;
28545;SDS011;15749;49.606;8.738;2023-06-10T09:05:38;3.95;;;3.17;;
28545;SDS011;15749;49.606;8.738;2023-06-10T09:08:39;3.20;;;2.90;;
28545;SDS011;15749;49.606;8.738;2023-06-10T09:11:27;2.65;;;2.45;;
28545;SDS011;15749;49.606;8.738;2023-06-10T09:14:19;3.28;;;2.95;;
28545;SDS011;15749;49.606;8.738;2023-06-10T09:17:09;2.60;;;2.40;;
28545;SDS011;15749;49.606;8.738;2023-06-10T09:19:58;3.72;;;3.20;;
28545;SDS011;15749;49.606;8.738;2023-06-10T09:22:51;3.88;;;3.47;;
28545;SDS011;15749;49.606;8.738;2023-06-10T09:25:43;3.00;;;2.80;;
28545;SDS011;15749;49.606;8.738;2023-06-10T09:28:31;3.03;;;2.72;;
28545;SDS011;15749;49.606;8.738;2023-06-10T09:31:24;5.15;;;2.85;;
28545;SDS011;15749;49.606;8.738;2023-06-10T09:34:13;2.70;;;2.50;;
28545;SDS011;15749;49.606;8.738;2023-06-10T09:45:09;2.67;;;2.47;;
28545;SDS011;15749;49.606;8.738;2023-06-10T09:48:03;2.50;;;2.30;;
28545;SDS011;15749;49.606;8.738;2023-06-10T09:51:01;2.47;;;2.13;;
28545;SDS011;15749;49.606;8.738;2023-06-10T09:54:12;4.93;;;2.40;;
28545;SDS011;15749;49.606;8.738;2023-06-10T09:57:08;2.75;;;2.17;;
28545;SDS011;15749;49.606;8.738;2023-06-10T10:00:27;2.55;;;2.35;;
28545;SDS011;15749;49.606;8.738;2023-06-10T10:07:39;2.60;;;2.38;;
28545;SDS011;15749;49.606;8.738;2023-06-10T10:10:45;2.53;;;2.33;;
28545;SDS011;15749;49.606;8.738;2023-06-10T10:13:46;3.05;;;2.85;;
28545;SDS011;15749;49.606;8.738;2023-06-10T10:16:39;3.15;;;2.80;;
28545;SDS011;15749;49.606;8.738;2023-06-10T10:19:30;2.75;;;2.55;;
28545;SDS011;15749;49.606;8.738;2023-06-10T10:22:37;2.75;;;2.20;;
28545;SDS011;15749;49.606;8.738;2023-06-10T10:25:32;3.22;;;2.33;;
28545;SDS011;15749;49.606;8.738;2023-06-10T10:29:00;4.53;;;2.45;;
28545;SDS011;15749;49.606;8.738;2023-06-10T10:32:32;2.22;;;2.03;;
28545;SDS011;15749;49.606;8.738;2023-06-10T10:35:33;2.97;;;2.60;;
28545;SDS011;15749;49.606;8.738;2023-06-10T10:38:41;3.90;;;2.45;;
28545;SDS011;15749;49.606;8.738;2023-06-10T10:41:32;2.47;;;2.28;;
28545;SDS011;15749;49.606;8.738;2023-06-10T10:48:05;2.55;;;2.35;;
28545;SDS011;15749;49.606;8.738;2023-06-10T10:51:10;2.70;;;2.35;;
28545;SDS011;15749;49.606;8.738;2023-06-10T10:54:09;2.47;;;1.77;;
28545;SDS011;15749;49.606;8.738;2023-06-10T10:57:15;2.60;;;2.20;;
28545;SDS011;15749;49.606;8.738;2023-06-10T11:00:34;2.10;;;1.90;;
28545;SDS011;15749;49.606;8.738;2023-06-10T11:03:34;2.00;;;1.80;;
28545;SDS011;15749;49.606;8.738;2023-06-10T11:10:51;2.47;;;1.98;;
28545;SDS011;15749;49.606;8.738;2023-06-10T11:13:50;3.00;;;2.15;;
28545;SDS011;15749;49.606;8.738;2023-06-10T11:16:47;1.95;;;1.77;;
28545;SDS011;15749;49.606;8.738;2023-06-10T11:19:39;1.80;;;1.70;;
28545;SDS011;15749;49.606;8.738;2023-06-10T11:22:42;2.10;;;1.83;;
28545;SDS011;15749;49.606;8.738;2023-06-10T11:25:55;2.28;;;2.08;;
28545;SDS011;15749;49.606;8.738;2023-06-10T11:29:22;13.25;;;2.80;;
28545;SDS011;15749;49.606;8.738;2023-06-10T11:32:10;2.22;;;1.90;;
28545;SDS011;15749;49.606;8.738;2023-06-10T11:34:59;2.17;;;2.00;;
28545;SDS011;15749;49.606;8.738;2023-06-10T11:37:50;3.13;;;1.85;;
28545;SDS011;15749;49.606;8.738;2023-06-10T11:44:16;3.80;;;2.17;;
28545;SDS011;15749;49.606;8.738;2023-06-10T11:50:45;2.38;;;2.17;;
28545;SDS011;15749;49.606;8.738;2023-06-10T11:53:39;3.63;;;2.40;;
28545;SDS011;15749;49.606;8.738;2023-06-10T11:56:34;2.40;;;2.08;;
28545;SDS011;15749;49.606;8.738;2023-06-10T12:00:06;2.33;;;2.00;;
28545;SDS011;15749;49.606;8.738;2023-06-10T12:03:02;1.85;;;1.75;;
28545;SDS011;15749;49.606;8.738;2023-06-10T12:05:56;3.03;;;1.90;;
28545;SDS011;15749;49.606;8.738;2023-06-10T12:08:46;1.80;;;1.70;;
28545;SDS011;15749;49.606;8.738;2023-06-10T12:15:19;2.00;;;1.90;;
28545;SDS011;15749;49.606;8.738;2023-06-10T12:18:17;1.83;;;1.73;;
28545;SDS011;15749;49.606;8.738;2023-06-10T12:21:17;2.83;;;2.20;;
28545;SDS011;15749;49.606;8.738;2023-06-10T12:24:12;2.00;;;1.83;;
28545;SDS011;15749;49.606;8.738;2023-06-10T12:27:03;1.67;;;1.48;;
28545;SDS011;15749;49.606;8.738;2023-06-10T12:29:51;1.65;;;1.55;;
28545;SDS011;15749;49.606;8.738;2023-06-10T12:32:41;1.83;;;1.73;;
28545;SDS011;15749;49.606;8.738;2023-06-10T12:35:32;2.33;;;1.67;;
28545;SDS011;15749;49.606;8.738;2023-06-10T12:38:46;3.20;;;2.05;;
28545;SDS011;15749;49.606;8.738;2023-06-10T12:41:52;2.15;;;1.73;;
28545;SDS011;15749;49.606;8.738;2023-06-10T12:48:06;2.15;;;1.95;;
28545;SDS011;15749;49.606;8.738;2023-06-10T12:50:59;5.10;;;2.10;;
28545;SDS011;15749;49.606;8.738;2023-06-10T12:53:47;1.98;;;1.60;;
28545;SDS011;15749;49.606;8.738;2023-06-10T12:56:41;2.10;;;1.90;;
28545;SDS011;15749;49.606;8.738;2023-06-10T12:59:35;2.10;;;1.90;;
28545;SDS011;15749;49.606;8.738;2023-06-10T13:02:42;3.08;;;1.77;;
28545;SDS011;15749;49.606;8.738;2023-06-10T13:05:34;2.30;;;2.10;;
28545;SDS011;15749;49.606;8.738;2023-06-10T13:08:39;2.55;;;1.73;;
28545;SDS011;15749;49.606;8.738;2023-06-10T13:11:40;1.75;;;1.65;;
28545;SDS011;15749;49.606;8.738;2023-06-10T13:14:28;2.20;;;2.00;;
28545;SDS011;15749;49.606;8.738;2023-06-10T13:17:16;2.00;;;1.90;;
28545;SDS011;15749;49.606;8.738;2023-06-10T13:20:14;2.10;;;1.90;;
28545;SDS011;15749;49.606;8.738;2023-06-10T13:23:08;3.47;;;2.00;;
28545;SDS011;15749;49.606;8.738;2023-06-10T13:25:58;1.95;;;1.52;;
28545;SDS011;15749;49.606;8.738;2023-06-10T13:28:49;2.00;;;1.90;;
28545;SDS011;15749;49.606;8.738;2023-06-10T13:31:38;2.08;;;1.88;;
28545;SDS011;15749;49.606;8.738;2023-06-10T13:34:26;1.88;;;1.77;;
28545;SDS011;15749;49.606;8.738;2023-06-10T13:37:15;1.90;;;1.80;;
28545;SDS011;15749;49.606;8.738;2023-06-10T13:40:23;1.80;;;1.70;;
28545;SDS011;15749;49.606;8.738;2023-06-10T13:43:15;3.53;;;1.90;;
28545;SDS011;15749;49.606;8.738;2023-06-10T13:46:03;4.57;;;2.03;;
28545;SDS011;15749;49.606;8.738;2023-06-10T13:48:54;1.70;;;1.60;;
28545;SDS011;15749;49.606;8.738;2023-06-10T13:51:42;2.13;;;1.88;;
28545;SDS011;15749;49.606;8.738;2023-06-10T13:54:48;1.65;;;1.38;;
28545;SDS011;15749;49.606;8.738;2023-06-10T13:57:36;1.98;;;1.88;;
28545;SDS011;15749;49.606;8.738;2023-06-10T14:00:26;2.05;;;1.63;;
28545;SDS011;15749;49.606;8.738;2023-06-10T14:06:54;2.45;;;1.52;;
28545;SDS011;15749;49.606;8.738;2023-06-10T14:09:49;2.22;;;1.85;;
28545;SDS011;15749;49.606;8.738;2023-06-10T14:12:42;1.85;;;1.73;;
28545;SDS011;15749;49.606;8.738;2023-06-10T14:15:39;2.85;;;1.88;;
28545;SDS011;15749;49.606;8.738;2023-06-10T14:18:32;2.05;;;1.85;;
28545;SDS011;15749;49.606;8.738;2023-06-10T14:21:27;2.85;;;1.67;;
28545;SDS011;15749;49.606;8.738;2023-06-10T14:24:22;2.15;;;1.90;;
28545;SDS011;15749;49.606;8.738;2023-06-10T14:28:26;1.73;;;1.63;;
28545;SDS011;15749;49.606;8.738;2023-06-10T14:32:28;3.55;;;1.48;;
28545;SDS011;15749;49.606;8.738;2023-06-10T14:35:42;2.00;;;1.70;;
28545;SDS011;15749;49.606;8.738;2023-06-10T14:46:29;2.00;;;1.85;;
28545;SDS011;15749;49.606;8.738;2023-06-10T14:49:18;2.35;;;2.00;;
28545;SDS011;15749;49.606;8.738;2023-06-10T14:52:06;1.85;;;1.75;;
28545;SDS011;15749;49.606;8.738;2023-06-10T14:54:54;2.63;;;1.58;;
28545;SDS011;15749;49.606;8.738;2023-06-10T14:57:41;2.03;;;1.83;;
28545;SDS011;15749;49.606;8.738;2023-06-10T15:00:29;3.03;;;1.83;;
28545;SDS011;15749;49.606;8.738;2023-06-10T15:03:16;2.15;;;1.95;;
28545;SDS011;15749;49.606;8.738;2023-06-10T15:06:05;1.85;;;1.75;;
28545;SDS011;15749;49.606;8.738;2023-06-10T15:08:52;2.05;;;1.85;;
28545;SDS011;15749;49.606;8.738;2023-06-10T15:11:40;2.50;;;2.25;;
28545;SDS011;15749;49.606;8.738;2023-06-10T15:14:27;2.70;;;1.75;;
28545;SDS011;15749;49.606;8.738;2023-06-10T15:17:14;2.05;;;1.85;;
28545;SDS011;15749;49.606;8.738;2023-06-10T15:20:02;3.58;;;2.10;;
28545;SDS011;15749;49.606;8.738;2023-06-10T15:22:52;2.58;;;1.70;;
28545;SDS011;15749;49.606;8.738;2023-06-10T15:25:40;2.13;;;1.67;;
28545;SDS011;15749;49.606;8.738;2023-06-10T15:28:27;2.22;;;2.03;;
28545;SDS011;15749;49.606;8.738;2023-06-10T15:31:15;3.20;;;1.70;;
28545;SDS011;15749;49.606;8.738;2023-06-10T15:34:02;2.60;;;2.17;;
28545;SDS011;15749;49.606;8.738;2023-06-10T15:36:50;1.70;;;1.60;;
28545;SDS011;15749;49.606;8.738;2023-06-10T15:39:38;4.15;;;1.80;;
28545;SDS011;15749;49.606;8.738;2023-06-10T15:42:26;2.10;;;1.92;;
28545;SDS011;15749;49.606;8.738;2023-06-10T15:45:13;2.20;;;1.70;;
28545;SDS011;15749;49.606;8.738;2023-06-10T15:48:01;2.10;;;1.75;;
28545;SDS011;15749;49.606;8.738;2023-06-10T15:50:48;1.80;;;1.70;;
28545;SDS011;15749;49.606;8.738;2023-06-10T15:53:36;1.60;;;1.50;;
28545;SDS011;15749;49.606;8.738;2023-06-10T15:56:25;2.50;;;1.73;;
28545;SDS011;15749;49.606;8.738;2023-06-10T15:59:12;1.52;;;1.42;;
28545;SDS011;15749;49.606;8.738;2023-06-10T16:01:59;1.75;;;1.65;;
28545;SDS011;15749;49.606;8.738;2023-06-10T16:04:48;2.33;;;2.20;;
28545;SDS011;15749;49.606;8.738;2023-06-10T16:07:36;3.10;;;2.00;;
28545;SDS011;15749;49.606;8.738;2023-06-10T16:10:23;1.85;;;1.73;;
28545;SDS011;15749;49.606;8.738;2023-06-10T16:13:12;1.90;;;1.80;;
28545;SDS011;15749;49.606;8.738;2023-06-10T16:16:00;2.35;;;1.80;;
28545;SDS011;15749;49.606;8.738;2023-06-10T16:18:48;3.13;;;1.90;;
28545;SDS011;15749;49.606;8.738;2023-06-10T16:21:35;2.25;;;1.92;;
28545;SDS011;15749;49.606;8.738;2023-06-10T16:24:25;2.05;;;1.90;;
28545;SDS011;15749;49.606;8.738;2023-06-10T16:27:12;1.73;;;1.63;;
28545;SDS011;15749;49.606;8.738;2023-06-10T16:30:01;2.08;;;1.80;;
28545;SDS011;15749;49.606;8.738;2023-06-10T16:32:49;2.20;;;2.00;;
28545;SDS011;15749;49.606;8.738;2023-06-10T16:35:36;3.65;;;1.73;;
28545;SDS011;15749;49.606;8.738;2023-06-10T16:38:24;2.75;;;1.77;;
28545;SDS011;15749;49.606;8.738;2023-06-10T16:41:11;2.17;;;1.98;;
28545;SDS011;15749;49.606;8.738;2023-06-10T16:43:59;2.75;;;2.00;;
28545;SDS011;15749;49.606;8.738;2023-06-10T16:46:50;1.95;;;1.85;;
28545;SDS011;15749;49.606;8.738;2023-06-10T16:49:37;2.25;;;2.05;;
28545;SDS011;15749;49.606;8.738;2023-06-10T16:52:25;4.00;;;1.90;;
28545;SDS011;15749;49.606;8.738;2023-06-10T16:55:12;2.38;;;1.90;;
28545;SDS011;15749;49.606;8.738;2023-06-10T16:57:59;2.08;;;1.98;;
28545;SDS011;15749;49.606;8.738;2023-06-10T17:00:47;2.22;;;2.03;;
28545;SDS011;15749;49.606;8.738;2023-06-10T17:03:36;1.80;;;1.70;;
28545;SDS011;15749;49.606;8.738;2023-06-10T17:06:24;2.22;;;1.80;;
28545;SDS011;15749;49.606;8.738;2023-06-10T17:09:11;2.83;;;1.80;;
28545;SDS011;15749;49.606;8.738;2023-06-10T17:11:58;2.15;;;2.00;;
28545;SDS011;15749;49.606;8.738;2023-06-10T17:14:46;2.10;;;1.90;;
28545;SDS011;15749;49.606;8.738;2023-06-10T17:17:33;2.33;;;1.88;;
28545;SDS011;15749;49.606;8.738;2023-06-10T17:20:23;2.60;;;1.83;;
28545;SDS011;15749;49.606;8.738;2023-06-10T17:23:10;1.77;;;1.67;;
28545;SDS011;15749;49.606;8.738;2023-06-10T17:25:57;2.08;;;1.88;;
28545;SDS011;15749;49.606;8.738;2023-06-10T17:28:45;1.95;;;1.70;;
28545;SDS011;15749;49.606;8.738;2023-06-10T17:31:32;2.22;;;2.03;;
28545;SDS011;15749;49.606;8.738;2023-06-10T17:34:20;2.30;;;2.10;;
28545;SDS011;15749;49.606;8.738;2023-06-10T17:37:08;2.15;;;2.03;;
28545;SDS011;15749;49.606;8.738;2023-06-10T17:39:56;2.58;;;2.00;;
28545;SDS011;15749;49.606;8.738;2023-06-10T17:42:43;1.80;;;1.70;;
28545;SDS011;15749;49.606;8.738;2023-06-10T17:45:31;2.03;;;1.90;;
28545;SDS011;15749;49.606;8.738;2023-06-10T17:48:18;1.98;;;1.88;;
28545;SDS011;15749;49.606;8.738;2023-06-10T17:51:06;2.30;;;2.20;;
28545;SDS011;15749;49.606;8.738;2023-06-10T17:53:54;2.58;;;2.22;;
28545;SDS011;15749;49.606;8.738;2023-06-10T17:56:42;2.30;;;1.90;;
28545;SDS011;15749;49.606;8.738;2023-06-10T17:59:30;1.70;;;1.60;;
28545;SDS011;15749;49.606;8.738;2023-06-10T18:02:17;2.97;;;1.70;;
28545;SDS011;15749;49.606;8.738;2023-06-10T18:05:05;1.70;;;1.60;;
28545;SDS011;15749;49.606;8.738;2023-06-10T18:07:54;2.33;;;1.80;;
28545;SDS011;15749;49.606;8.738;2023-06-10T18:10:42;1.58;;;1.48;;
28545;SDS011;15749;49.606;8.738;2023-06-10T18:13:30;1.73;;;1.63;;
28545;SDS011;15749;49.606;8.738;2023-06-10T18:16:18;2.00;;;1.90;;
28545;SDS011;15749;49.606;8.738;2023-06-10T18:19:05;2.33;;;1.77;;
28545;SDS011;15749;49.606;8.738;2023-06-10T18:21:52;1.90;;;1.80;;
28545;SDS011;15749;49.606;8.738;2023-06-10T18:24:40;2.30;;;2.15;;
28545;SDS011;15749;49.606;8.738;2023-06-10T18:27:28;2.20;;;2.00;;
28545;SDS011;15749;49.606;8.738;2023-06-10T18:30:16;1.70;;;1.60;;
28545;SDS011;15749;49.606;8.738;2023-06-10T18:33:03;2.08;;;1.88;;
28545;SDS011;15749;49.606;8.738;2023-06-10T18:35:51;2.28;;;2.00;;
28545;SDS011;15749;49.606;8.738;2023-06-10T18:38:39;1.88;;;1.73;;
28545;SDS011;15749;49.606;8.738;2023-06-10T18:41:26;1.95;;;1.80;;
28545;SDS011;15749;49.606;8.738;2023-06-10T18:44:15;2.55;;;2.35;;
28545;SDS011;15749;49.606;8.738;2023-06-10T18:47:03;2.70;;;2.38;;
28545;SDS011;15749;49.606;8.738;2023-06-10T18:49:51;2.30;;;2.10;;
28545;SDS011;15749;49.606;8.738;2023-06-10T18:52:38;2.47;;;2.15;;
28545;SDS011;15749;49.606;8.738;2023-06-10T18:55:26;2.25;;;2.05;;
28545;SDS011;15749;49.606;8.738;2023-06-10T18:58:17;2.50;;;2.30;;
28545;SDS011;15749;49.606;8.738;2023-06-10T19:01:06;3.67;;;2.35;;
28545;SDS011;15749;49.606;8.738;2023-06-10T19:03:54;3.50;;;2.50;;
28545;SDS011;15749;49.606;8.738;2023-06-10T19:06:41;3.00;;;2.47;;
28545;SDS011;15749;49.606;8.738;2023-06-10T19:09:29;2.58;;;2.38;;
28545;SDS011;15749;49.606;8.738;2023-06-10T19:12:16;2.30;;;2.10;;
28545;SDS011;15749;49.606;8.738;2023-06-10T19:15:04;2.40;;;2.20;;
28545;SDS011;15749;49.606;8.738;2023-06-10T19:17:55;4.78;;;2.50;;
28545;SDS011;15749;49.606;8.738;2023-06-10T19:20:42;2.17;;;2.08;;
28545;SDS011;15749;49.606;8.738;2023-06-10T19:23:30;2.33;;;2.13;;
28545;SDS011;15749;49.606;8.738;2023-06-10T19:26:17;2.63;;;2.42;;
28545;SDS011;15749;49.606;8.738;2023-06-10T19:29:05;2.65;;;2.45;;
28545;SDS011;15749;49.606;8.738;2023-06-10T19:31:52;2.00;;;1.90;;
28545;SDS011;15749;49.606;8.738;2023-06-10T19:34:41;2.50;;;2.30;;
28545;SDS011;15749;49.606;8.738;2023-06-10T19:37:28;2.30;;;2.20;;
28545;SDS011;15749;49.606;8.738;2023-06-10T19:40:16;4.10;;;2.47;;
28545;SDS011;15749;49.606;8.738;2023-06-10T19:43:03;2.70;;;2.50;;
28545;SDS011;15749;49.606;8.738;2023-06-10T19:45:50;2.67;;;2.47;;
28545;SDS011;15749;49.606;8.738;2023-06-10T19:48:38;2.45;;;2.25;;